createdAt,value
2022-10-31T00:01:16.774Z,20.10
2022-10-31T00:04:04.847Z,15.03
2022-10-31T00:06:51.789Z,14.63
2022-10-31T00:09:38.767Z,18.20
2022-10-31T00:12:26.571Z,15.20
2022-10-31T00:15:13.606Z,18.43
2022-10-31T00:18:00.868Z,19.20
2022-10-31T00:20:48.094Z,17.60
2022-10-31T00:23:35.129Z,20.93
2022-10-31T00:26:22.347Z,22.00
2022-10-31T00:29:09.351Z,15.97
2022-10-31T00:31:56.304Z,19.83
2022-10-31T00:34:43.544Z,20.00
2022-10-31T00:37:30.510Z,23.03
2022-10-31T00:40:17.467Z,23.17
2022-10-31T00:43:04.831Z,18.40
2022-10-31T00:45:51.978Z,20.63
2022-10-31T00:48:39.048Z,18.80
2022-10-31T00:51:26.047Z,21.33
2022-10-31T00:54:13.016Z,24.93
2022-10-31T00:56:59.990Z,25.23
2022-10-31T00:59:46.943Z,22.50
2022-10-31T01:02:34.451Z,22.87
2022-10-31T01:05:21.765Z,24.83
2022-10-31T01:08:08.950Z,23.40
2022-10-31T01:11:11.444Z,28.47
2022-10-31T01:13:58.549Z,26.20
2022-10-31T01:16:45.507Z,27.13
2022-10-31T01:19:32.491Z,27.47
2022-10-31T01:22:19.516Z,24.20
2022-10-31T01:25:08.384Z,37.23
2022-10-31T01:27:55.327Z,29.33
2022-10-31T01:30:42.367Z,28.97
2022-10-31T01:33:29.369Z,28.80
2022-10-31T01:36:17.848Z,29.47
2022-10-31T01:39:07.453Z,33.83
2022-10-31T01:41:55.162Z,32.03
2022-10-31T01:44:42.072Z,37.40
2022-10-31T01:47:34.913Z,35.60
2022-10-31T01:50:29.778Z,33.90
2022-10-31T01:53:17.462Z,37.77
2022-10-31T01:56:04.680Z,32.87
2022-10-31T01:58:52.759Z,33.60
2022-10-31T02:01:39.853Z,33.60
2022-10-31T02:04:28.372Z,34.87
2022-10-31T02:07:21.926Z,32.57
2022-10-31T02:10:09.181Z,40.33
2022-10-31T02:12:59.594Z,38.23
2022-10-31T02:15:50.839Z,35.03
2022-10-31T02:18:37.865Z,37.57
2022-10-31T02:21:40.787Z,40.80
2022-10-31T02:24:47.250Z,41.60
2022-10-31T02:28:15.045Z,43.27
2022-10-31T02:31:13.992Z,36.90
2022-10-31T02:34:17.007Z,39.33
2022-10-31T02:37:15.563Z,47.43
2022-10-31T02:40:19.440Z,44.93
2022-10-31T02:43:24.165Z,41.10
2022-10-31T02:47:10.277Z,43.57
2022-10-31T02:50:03.423Z,39.97
2022-10-31T02:52:53.823Z,44.00
2022-10-31T02:55:50.291Z,46.10
2022-10-31T02:58:42.814Z,45.70
2022-10-31T03:01:32.550Z,46.07
2022-10-31T03:04:37.711Z,45.60
2022-10-31T03:08:22.115Z,57.37
2022-10-31T03:11:10.434Z,49.93
2022-10-31T03:14:11.895Z,64.53
2022-10-31T03:17:03.058Z,68.73
2022-10-31T03:19:56.879Z,77.63
2022-10-31T03:22:45.103Z,77.80
2022-10-31T03:25:33.980Z,89.60
2022-10-31T03:28:28.841Z,87.67
2022-10-31T03:31:19.550Z,75.67
2022-10-31T03:34:08.642Z,101.63
2022-10-31T03:36:59.451Z,73.13
2022-10-31T03:39:49.095Z,97.30
2022-10-31T03:42:42.233Z,103.73
2022-10-31T03:45:31.760Z,78.07
2022-10-31T03:48:21.145Z,95.43
2022-10-31T03:51:20.511Z,102.07
2022-10-31T03:54:21.519Z,145.37
2022-10-31T03:57:28.151Z,120.13
2022-10-31T04:00:17.160Z,117.80
2022-10-31T04:03:20.112Z,95.23
2022-10-31T04:06:10.101Z,95.63
2022-10-31T04:09:03.407Z,107.33
2022-10-31T04:11:54.301Z,82.77
2022-10-31T04:14:42.827Z,86.70
2022-10-31T04:17:34.224Z,82.70
2022-10-31T04:20:31.559Z,74.07
2022-10-31T04:23:23.157Z,65.77
2022-10-31T04:26:13.040Z,76.40
2022-10-31T04:29:00.008Z,75.93
2022-10-31T04:31:47.063Z,77.43
2022-10-31T04:34:34.042Z,65.60
2022-10-31T04:37:21.009Z,64.50
2022-10-31T04:40:08.554Z,59.17
2022-10-31T04:42:55.757Z,64.10
2022-10-31T04:45:42.709Z,64.10
2022-10-31T04:48:30.059Z,67.27
2022-10-31T04:51:17.022Z,53.37
2022-10-31T04:54:04.241Z,58.03
2022-10-31T04:56:51.231Z,56.93
2022-10-31T04:59:38.164Z,59.10
2022-10-31T05:02:25.174Z,54.80
2022-10-31T05:05:13.608Z,58.17
2022-10-31T05:08:00.681Z,56.63
2022-10-31T05:10:47.687Z,50.90
2022-10-31T05:13:34.720Z,57.47
2022-10-31T05:16:21.665Z,62.50
2022-10-31T05:19:08.597Z,58.20
2022-10-31T05:21:55.583Z,55.40
2022-10-31T05:24:42.748Z,49.87
2022-10-31T05:27:29.702Z,61.13
2022-10-31T05:30:22.702Z,52.50
2022-10-31T05:33:09.664Z,49.43
2022-10-31T05:35:56.673Z,54.03
2022-10-31T05:38:43.605Z,55.83
2022-10-31T05:41:30.599Z,58.47
2022-10-31T05:44:17.557Z,48.30
2022-10-31T05:47:04.566Z,52.73
2022-10-31T05:49:51.819Z,58.57
2022-10-31T05:52:38.787Z,52.23
2022-10-31T05:55:26.689Z,59.43
2022-10-31T05:58:13.728Z,63.67
2022-10-31T06:01:00.732Z,57.30
2022-10-31T06:03:47.715Z,52.50
2022-10-31T06:06:34.781Z,60.77
2022-10-31T06:09:21.740Z,56.93
2022-10-31T06:12:08.704Z,52.47
2022-10-31T06:14:55.673Z,60.30
2022-10-31T06:17:42.647Z,69.63
2022-10-31T06:20:29.758Z,58.40
2022-10-31T06:23:16.843Z,54.63
2022-10-31T06:26:03.868Z,55.47
2022-10-31T06:28:50.818Z,54.33
2022-10-31T06:31:37.742Z,53.20
2022-10-31T06:34:24.876Z,50.37
2022-10-31T06:37:12.995Z,51.03
2022-10-31T06:40:00.168Z,54.87
2022-10-31T06:42:47.264Z,50.37
2022-10-31T06:45:34.713Z,53.33
2022-10-31T06:48:22.233Z,45.23
2022-10-31T06:51:09.784Z,49.27
2022-10-31T06:53:56.717Z,58.73
2022-10-31T06:56:46.374Z,49.67
2022-10-31T06:59:33.392Z,50.70
2022-10-31T07:02:20.570Z,57.80
2022-10-31T07:05:07.893Z,53.17
2022-10-31T07:08:03.743Z,63.83
2022-10-31T07:10:56.103Z,60.43
2022-10-31T07:13:43.092Z,60.03
2022-10-31T07:16:30.044Z,60.80
2022-10-31T07:19:17.363Z,53.53
2022-10-31T07:22:04.364Z,60.90
2022-10-31T07:24:51.517Z,55.37
2022-10-31T07:27:42.644Z,59.00
2022-10-31T07:30:30.042Z,55.23
2022-10-31T07:33:17.010Z,60.60
2022-10-31T07:36:04.052Z,58.00
2022-10-31T07:38:51.094Z,59.60
2022-10-31T07:41:38.043Z,55.63
2022-10-31T07:44:24.992Z,59.47
2022-10-31T07:47:11.970Z,52.87
2022-10-31T07:49:58.948Z,58.27
2022-10-31T07:52:46.015Z,55.60
2022-10-31T07:55:33.837Z,54.57
2022-10-31T07:58:20.852Z,48.67
2022-10-31T08:01:08.191Z,53.90
2022-10-31T08:03:56.811Z,46.37
2022-10-31T08:06:43.777Z,48.53
2022-10-31T08:09:30.867Z,46.53
2022-10-31T08:12:17.805Z,46.40
2022-10-31T08:15:05.121Z,37.07
2022-10-31T08:17:52.258Z,39.47
2022-10-31T08:20:39.616Z,43.03
2022-10-31T08:23:26.609Z,41.93
2022-10-31T08:26:13.567Z,41.83
2022-10-31T08:29:00.552Z,38.23
2022-10-31T08:31:47.548Z,39.17
2022-10-31T08:34:34.509Z,40.87
2022-10-31T08:37:21.473Z,38.53
2022-10-31T08:40:08.948Z,33.63
2022-10-31T08:43:03.795Z,37.00
2022-10-31T08:45:51.060Z,34.53
2022-10-31T08:48:38.005Z,37.53
2022-10-31T08:51:24.975Z,31.87
2022-10-31T08:54:12.161Z,33.30
2022-10-31T08:56:59.250Z,30.63
2022-10-31T08:59:46.293Z,29.73
2022-10-31T09:02:33.657Z,28.33
2022-10-31T09:05:20.595Z,32.43
2022-10-31T09:08:14.849Z,30.20
2022-10-31T09:11:03.841Z,33.27
2022-10-31T09:13:50.762Z,27.10
2022-10-31T09:16:37.810Z,24.80
2022-10-31T09:19:24.770Z,27.23
2022-10-31T09:22:11.930Z,22.63
2022-10-31T09:24:58.856Z,22.27
2022-10-31T09:27:45.820Z,28.60
2022-10-31T09:30:34.737Z,22.80
2022-10-31T09:33:22.287Z,26.30
2022-10-31T09:36:09.418Z,19.73
2022-10-31T09:38:56.432Z,23.77
2022-10-31T09:42:02.058Z,21.20
2022-10-31T09:45:05.114Z,19.93
2022-10-31T09:48:07.296Z,22.87
2022-10-31T09:51:10.946Z,23.23
2022-10-31T09:54:31.178Z,19.77
2022-10-31T09:57:23.362Z,23.90
2022-10-31T10:00:20.129Z,22.37
2022-10-31T10:03:29.478Z,19.13
2022-10-31T10:06:21.459Z,22.77
2022-10-31T10:09:10.723Z,22.93
2022-10-31T10:12:25.010Z,24.13
2022-10-31T10:15:18.186Z,23.60
2022-10-31T10:18:20.266Z,19.73
2022-10-31T10:21:10.294Z,22.83
2022-10-31T10:24:38.749Z,18.60
2022-10-31T10:28:02.344Z,19.00
2022-10-31T10:30:55.924Z,22.97
2022-10-31T10:33:58.898Z,19.10
2022-10-31T10:36:52.708Z,19.83
2022-10-31T10:39:41.279Z,19.83
2022-10-31T10:42:47.248Z,19.63
2022-10-31T10:45:53.094Z,22.30
2022-10-31T10:49:00.084Z,21.73
2022-10-31T10:55:17.791Z,21.00
2022-10-31T10:58:08.523Z,18.67
2022-10-31T11:00:56.597Z,16.47
2022-10-31T11:03:43.754Z,16.50
2022-10-31T11:06:30.769Z,14.80
2022-10-31T11:09:18.027Z,13.77
2022-10-31T11:12:25.237Z,14.85
2022-10-31T11:15:50.241Z,18.33
2022-10-31T11:18:48.056Z,11.60
2022-10-31T11:21:36.018Z,14.93
2022-10-31T11:24:28.850Z,14.07
2022-10-31T11:27:23.732Z,13.98
2022-10-31T11:30:13.530Z,13.15
2022-10-31T11:33:01.197Z,13.52
2022-10-31T11:35:52.060Z,14.85
2022-10-31T11:38:44.075Z,15.30
2022-10-31T11:41:32.647Z,15.50
2022-10-31T11:44:26.668Z,12.65
2022-10-31T11:47:17.405Z,11.43
2022-10-31T11:50:12.339Z,13.47
2022-10-31T11:52:59.446Z,14.47
2022-10-31T11:55:47.594Z,12.67
2022-10-31T11:58:34.610Z,14.57
2022-10-31T12:01:30.496Z,15.13
2022-10-31T12:04:18.196Z,14.57
2022-10-31T12:07:05.382Z,18.93
2022-10-31T12:09:52.414Z,13.77
2022-10-31T12:13:12.683Z,18.87
2022-10-31T12:16:27.042Z,15.40
2022-10-31T12:19:30.743Z,12.73
2022-10-31T12:22:45.728Z,13.98
2022-10-31T12:26:01.701Z,13.43
2022-10-31T12:29:09.715Z,15.20
2022-10-31T12:32:30.298Z,15.85
2022-10-31T12:35:27.466Z,13.13
2022-10-31T12:38:43.133Z,14.15
2022-10-31T12:42:21.708Z,16.58
2022-10-31T12:45:30.530Z,16.40
2022-10-31T12:48:26.820Z,15.63
2022-10-31T12:51:26.081Z,14.53
2022-10-31T12:54:42.719Z,13.82
2022-10-31T12:57:39.336Z,15.80
2022-10-31T13:00:30.487Z,14.10
2022-10-31T13:03:20.321Z,16.65
2022-10-31T13:06:14.096Z,13.15
2022-10-31T13:09:08.739Z,17.13
2022-10-31T13:12:21.576Z,14.13
2022-10-31T13:15:19.709Z,13.17
2022-10-31T13:18:15.595Z,11.32
2022-10-31T13:21:08.905Z,13.50
2022-10-31T13:23:58.799Z,16.50
2022-10-31T13:26:55.190Z,14.32
2022-10-31T13:30:12.838Z,13.85
2022-10-31T13:33:12.384Z,13.27
2022-10-31T13:36:15.661Z,13.43
2022-10-31T13:39:14.258Z,14.30
2022-10-31T13:42:14.412Z,9.47
2022-10-31T13:45:25.203Z,12.40
2022-10-31T13:48:15.068Z,12.87
2022-10-31T13:51:05.583Z,12.37
2022-10-31T13:53:52.492Z,14.77
2022-10-31T13:56:41.088Z,12.67
2022-10-31T13:59:33.949Z,13.13
2022-10-31T14:02:28.488Z,13.37
2022-10-31T14:05:36.668Z,12.83
2022-10-31T14:08:25.107Z,16.13
2022-10-31T14:11:32.855Z,15.23
2022-10-31T14:14:29.231Z,10.00
2022-10-31T14:17:23.085Z,11.47
2022-10-31T14:20:13.105Z,10.73
2022-10-31T14:23:10.964Z,12.00
2022-10-31T14:26:32.164Z,8.30
2022-10-31T14:29:19.038Z,11.90
2022-10-31T14:32:19.389Z,10.10
2022-10-31T14:35:21.100Z,8.17
2022-10-31T14:38:20.593Z,8.70
2022-10-31T14:41:23.116Z,10.40
2022-10-31T14:44:27.986Z,10.67
2022-10-31T14:47:42.540Z,10.27
2022-10-31T14:50:35.330Z,11.60
2022-10-31T14:53:30.203Z,10.97
2022-10-31T14:56:31.458Z,13.17
2022-10-31T14:59:23.568Z,9.77
2022-10-31T15:02:18.504Z,9.03
2022-10-31T15:05:11.331Z,15.47
2022-10-31T15:07:59.702Z,12.60
2022-10-31T15:10:47.119Z,13.90
2022-10-31T15:13:34.195Z,12.43
2022-10-31T15:16:35.213Z,13.87
2022-10-31T15:19:25.340Z,13.70
2022-10-31T15:22:24.134Z,11.83
2022-10-31T15:25:22.645Z,8.27
2022-10-31T15:28:23.241Z,9.33
2022-10-31T15:31:18.089Z,12.10
2022-10-31T15:34:17.049Z,10.13
2022-10-31T15:37:04.302Z,10.47
2022-10-31T15:39:52.269Z,11.07
2022-10-31T15:42:43.052Z,12.83
2022-10-31T15:45:31.264Z,15.70
2022-10-31T15:48:27.591Z,12.27
2022-10-31T15:51:15.100Z,10.00
2022-10-31T15:54:02.311Z,12.83
2022-10-31T15:56:49.601Z,11.67
2022-10-31T15:59:36.593Z,14.30
2022-10-31T16:02:26.181Z,11.43
2022-10-31T16:05:18.838Z,12.33
2022-10-31T16:08:22.668Z,15.20
2022-10-31T16:11:15.388Z,11.97
2022-10-31T16:14:23.216Z,15.77
2022-10-31T16:17:15.185Z,15.50
2022-10-31T16:20:06.169Z,16.23
2022-10-31T16:22:55.200Z,15.73
2022-10-31T16:25:42.246Z,17.43
2022-10-31T16:28:32.003Z,16.97
2022-10-31T16:31:37.434Z,13.43
2022-10-31T16:34:26.883Z,13.50
2022-10-31T16:37:14.262Z,16.63
2022-10-31T16:40:01.317Z,17.13
2022-10-31T16:42:51.859Z,18.07
2022-10-31T16:45:45.414Z,15.97
2022-10-31T16:48:32.409Z,17.70
2022-10-31T16:51:19.596Z,22.93
2022-10-31T16:54:06.584Z,20.10
2022-10-31T16:56:53.748Z,19.50
2022-10-31T16:59:40.705Z,20.43
2022-10-31T17:02:27.751Z,22.70
2022-10-31T17:05:16.692Z,18.43
2022-10-31T17:08:04.377Z,22.03
2022-10-31T17:10:56.772Z,19.17
2022-10-31T17:13:43.948Z,19.97
2022-10-31T17:16:31.025Z,17.37
2022-10-31T17:19:18.038Z,20.63
2022-10-31T17:22:05.008Z,16.97
2022-10-31T17:24:51.975Z,17.70
2022-10-31T17:27:39.623Z,21.47
2022-10-31T17:30:28.577Z,20.20
2022-10-31T17:33:17.088Z,22.47
2022-10-31T17:36:04.431Z,19.97
2022-10-31T17:38:51.379Z,17.27
2022-10-31T17:41:38.287Z,20.93
2022-10-31T17:44:25.298Z,18.63
2022-10-31T17:47:12.288Z,17.07
2022-10-31T17:49:59.251Z,18.57
2022-10-31T17:52:46.807Z,17.60
2022-10-31T17:55:36.219Z,17.70
2022-10-31T17:58:24.642Z,18.37
2022-10-31T18:01:14.392Z,19.73
2022-10-31T18:04:01.878Z,28.83
2022-10-31T18:06:49.871Z,18.93
2022-10-31T18:09:36.875Z,21.73
2022-10-31T18:12:23.853Z,24.17
2022-10-31T18:15:11.065Z,21.23
2022-10-31T18:17:58.262Z,22.27
2022-10-31T18:20:45.638Z,29.37
2022-10-31T18:23:32.782Z,26.47
2022-10-31T18:26:19.743Z,24.57
2022-10-31T18:29:06.727Z,20.93
2022-10-31T18:31:55.421Z,20.83
2022-10-31T18:34:42.331Z,20.17
2022-10-31T18:37:29.278Z,21.47
2022-10-31T18:40:16.580Z,18.60
2022-10-31T18:43:04.044Z,19.43
2022-10-31T18:45:55.000Z,22.40
2022-10-31T18:48:45.298Z,22.63
2022-10-31T18:51:32.540Z,26.00
2022-10-31T18:54:19.614Z,22.10
2022-10-31T18:57:06.585Z,23.70
2022-10-31T18:59:53.616Z,19.47
2022-10-31T19:02:40.654Z,21.83
2022-10-31T19:05:27.585Z,19.90
2022-10-31T19:08:14.573Z,23.23
2022-10-31T19:11:19.881Z,26.47
2022-10-31T19:14:08.468Z,24.73
2022-10-31T19:16:58.334Z,24.80
2022-10-31T19:19:48.076Z,33.33
2022-10-31T19:22:35.034Z,28.60
2022-10-31T19:25:22.052Z,30.53
2022-10-31T19:28:09.017Z,30.27
2022-10-31T19:30:56.076Z,23.50
2022-10-31T19:33:43.015Z,28.73
2022-10-31T19:36:30.025Z,29.10
2022-10-31T19:39:17.036Z,30.63
2022-10-31T19:42:04.206Z,29.00
2022-10-31T19:44:51.392Z,27.70
2022-10-31T19:47:38.370Z,28.37
2022-10-31T19:50:25.394Z,29.40
2022-10-31T19:53:12.336Z,25.70
2022-10-31T19:56:00.164Z,33.80
2022-10-31T19:58:47.542Z,28.07
2022-10-31T20:01:34.959Z,28.70
2022-10-31T20:04:22.018Z,31.70
2022-10-31T20:07:08.940Z,29.77
2022-10-31T20:09:56.296Z,29.30
2022-10-31T20:12:43.554Z,27.47
2022-10-31T20:15:30.621Z,27.60
2022-10-31T20:18:18.125Z,33.17
2022-10-31T20:21:11.017Z,30.40
2022-10-31T20:24:00.498Z,28.40
2022-10-31T20:26:47.495Z,30.63
2022-10-31T20:29:34.523Z,32.37
2022-10-31T20:32:21.500Z,28.50
2022-10-31T20:35:08.873Z,29.67
2022-10-31T20:37:56.524Z,33.47
2022-10-31T20:40:44.074Z,31.03
2022-10-31T20:43:33.004Z,34.03
2022-10-31T20:46:24.381Z,34.43
2022-10-31T20:49:11.352Z,33.40
2022-10-31T20:51:58.317Z,33.47
2022-10-31T20:54:45.266Z,32.40
2022-10-31T20:57:32.283Z,39.30
2022-10-31T21:00:19.271Z,36.83
2022-10-31T21:03:06.327Z,38.17
2022-10-31T21:06:01.149Z,37.93
2022-10-31T21:08:48.093Z,36.33
2022-10-31T21:11:35.083Z,35.37
2022-10-31T21:14:22.034Z,32.30
2022-10-31T21:17:09.004Z,31.67
2022-10-31T21:19:55.978Z,35.97
2022-10-31T21:22:42.907Z,37.70
2022-10-31T21:25:29.909Z,31.37
2022-10-31T21:28:17.290Z,33.23
2022-10-31T21:31:09.759Z,39.67
2022-10-31T21:33:57.973Z,33.93
2022-10-31T21:36:45.429Z,32.43
2022-10-31T21:39:32.367Z,35.90
2022-10-31T21:42:22.845Z,34.03
2022-10-31T21:45:09.912Z,34.60
2022-10-31T21:47:56.827Z,36.50
2022-10-31T21:50:43.770Z,34.37
2022-10-31T21:53:49.407Z,35.87
2022-10-31T21:56:36.984Z,33.47
2022-10-31T21:59:24.361Z,35.70
2022-10-31T22:02:12.033Z,34.30
2022-10-31T22:04:59.072Z,36.73
2022-10-31T22:07:46.036Z,39.50
2022-10-31T22:10:33.907Z,35.63
2022-10-31T22:13:21.046Z,40.13
2022-10-31T22:16:11.608Z,38.93
2022-10-31T22:19:00.130Z,40.53
2022-10-31T22:21:48.909Z,36.00
2022-10-31T22:24:35.919Z,42.93
2022-10-31T22:27:22.901Z,37.10
2022-10-31T22:30:13.047Z,40.53
2022-10-31T22:33:00.361Z,44.37
2022-10-31T22:35:47.579Z,41.67
2022-10-31T22:38:39.946Z,44.90
2022-10-31T22:41:29.602Z,57.70
2022-10-31T22:44:16.558Z,48.03
2022-10-31T22:47:03.594Z,57.30
2022-10-31T22:49:50.639Z,61.50
2022-10-31T22:52:37.682Z,55.53
2022-10-31T22:55:24.700Z,46.63
2022-10-31T22:58:11.864Z,61.53
2022-10-31T23:00:59.496Z,53.60
2022-10-31T23:03:47.001Z,57.13
2022-10-31T23:06:34.009Z,54.03
2022-10-31T23:09:20.991Z,61.50
2022-10-31T23:12:26.937Z,56.77
2022-10-31T23:15:13.983Z,63.60
2022-10-31T23:18:01.163Z,61.50
2022-10-31T23:20:55.075Z,57.87
2022-10-31T23:23:42.006Z,59.83
2022-10-31T23:26:47.571Z,57.63
2022-10-31T23:29:38.981Z,56.27
2022-10-31T23:32:31.848Z,59.67
2022-10-31T23:35:18.876Z,60.40
2022-10-31T23:38:06.016Z,61.30
2022-10-31T23:40:53.225Z,59.47
2022-10-31T23:43:40.210Z,64.13
2022-10-31T23:46:27.156Z,59.97
2022-10-31T23:49:14.157Z,61.83
2022-10-31T23:52:01.350Z,55.50
2022-10-31T23:54:48.519Z,59.43
2022-10-31T23:57:35.466Z,58.53
